sensor_id;sensor_type;location;lat;lon;timestamp;pressure;altitude;pressure_sealevel;temperature;humidity
77288;BME280;66345;42.694;23.346;2023-04-25T00:01:19;94769.22;;;11.54;79.00
77288;BME280;66345;42.694;23.346;2023-04-25T00:03:45;94765.03;;;11.71;79.36
77288;BME280;66345;42.694;23.346;2023-04-25T00:06:11;94765.16;;;11.45;79.41
77288;BME280;66345;42.694;23.346;2023-04-25T00:08:37;94757.44;;;11.36;80.82
77288;BME280;66345;42.694;23.346;2023-04-25T00:11:02;94743.13;;;11.37;81.98
77288;BME280;66345;42.694;23.346;2023-04-25T00:13:28;94724.34;;;11.32;80.22
77288;BME280;66345;42.694;23.346;2023-04-25T00:15:53;94727.44;;;11.29;80.93
77288;BME280;66345;42.694;23.346;2023-04-25T00:18:19;94717.06;;;11.21;80.65
77288;BME280;66345;42.694;23.346;2023-04-25T00:20:45;94715.25;;;11.15;81.67
77288;BME280;66345;42.694;23.346;2023-04-25T00:23:15;94702.25;;;11.00;81.65
77288;BME280;66345;42.694;23.346;2023-04-25T00:25:45;94702.47;;;10.92;82.67
77288;BME280;66345;42.694;23.346;2023-04-25T00:28:11;94715.94;;;11.04;81.72
77288;BME280;66345;42.694;23.346;2023-04-25T00:30:39;94712.47;;;11.03;82.41
77288;BME280;66345;42.694;23.346;2023-04-25T00:33:04;94704.28;;;11.05;82.06
77288;BME280;66345;42.694;23.346;2023-04-25T00:35:30;94715.63;;;10.74;82.74
77288;BME280;66345;42.694;23.346;2023-04-25T00:37:56;94713.16;;;10.72;83.09
77288;BME280;66345;42.694;23.346;2023-04-25T00:40:21;94714.50;;;10.95;83.00
77288;BME280;66345;42.694;23.346;2023-04-25T00:42:47;94699.13;;;11.10;82.58
77288;BME280;66345;42.694;23.346;2023-04-25T00:45:13;94697.09;;;11.12;81.14
77288;BME280;66345;42.694;23.346;2023-04-25T00:47:40;94700.81;;;11.04;81.12
77288;BME280;66345;42.694;23.346;2023-04-25T00:50:06;94709.94;;;11.15;82.27
77288;BME280;66345;42.694;23.346;2023-04-25T00:52:32;94700.38;;;11.07;82.91
77288;BME280;66345;42.694;23.346;2023-04-25T00:54:59;94712.16;;;11.18;82.83
77288;BME280;66345;42.694;23.346;2023-04-25T00:57:25;94718.31;;;11.19;81.75
77288;BME280;66345;42.694;23.346;2023-04-25T00:59:51;94706.84;;;11.18;82.18
77288;BME280;66345;42.694;23.346;2023-04-25T01:02:17;94714.06;;;11.11;81.73
77288;BME280;66345;42.694;23.346;2023-04-25T01:04:43;94708.75;;;11.11;82.47
77288;BME280;66345;42.694;23.346;2023-04-25T01:07:09;94710.97;;;11.14;82.03
77288;BME280;66345;42.694;23.346;2023-04-25T01:09:35;94693.94;;;11.28;82.47
77288;BME280;66345;42.694;23.346;2023-04-25T01:12:01;94690.78;;;11.45;81.62
77288;BME280;66345;42.694;23.346;2023-04-25T01:14:28;94683.13;;;11.23;80.17
77288;BME280;66345;42.694;23.346;2023-04-25T01:16:53;94685.97;;;11.28;81.05
77288;BME280;66345;42.694;23.346;2023-04-25T01:19:19;94679.38;;;11.37;81.18
77288;BME280;66345;42.694;23.346;2023-04-25T01:21:45;94677.03;;;11.16;81.07
77288;BME280;66345;42.694;23.346;2023-04-25T01:24:11;94674.97;;;11.18;80.89
77288;BME280;66345;42.694;23.346;2023-04-25T01:26:37;94666.19;;;11.24;80.56
77288;BME280;66345;42.694;23.346;2023-04-25T01:29:07;94672.94;;;11.20;80.80
77288;BME280;66345;42.694;23.346;2023-04-25T01:31:34;94679.28;;;11.19;80.83
77288;BME280;66345;42.694;23.346;2023-04-25T01:34:01;94666.66;;;11.08;80.89
77288;BME280;66345;42.694;23.346;2023-04-25T01:36:26;94653.81;;;11.11;81.30
77288;BME280;66345;42.694;23.346;2023-04-25T01:38:52;94670.53;;;11.12;81.81
77288;BME280;66345;42.694;23.346;2023-04-25T01:41:18;94664.66;;;11.03;81.26
77288;BME280;66345;42.694;23.346;2023-04-25T01:43:45;94668.53;;;11.01;81.65
77288;BME280;66345;42.694;23.346;2023-04-25T01:46:11;94675.47;;;11.02;81.72
77288;BME280;66345;42.694;23.346;2023-04-25T01:48:37;94667.72;;;11.00;81.32
77288;BME280;66345;42.694;23.346;2023-04-25T01:51:03;94665.72;;;10.96;81.24
77288;BME280;66345;42.694;23.346;2023-04-25T01:53:28;94676.75;;;10.93;82.17
77288;BME280;66345;42.694;23.346;2023-04-25T01:55:54;94677.41;;;10.81;82.09
77288;BME280;66345;42.694;23.346;2023-04-25T01:58:19;94683.59;;;10.62;82.71
77288;BME280;66345;42.694;23.346;2023-04-25T02:00:46;94684.63;;;10.54;83.46
77288;BME280;66345;42.694;23.346;2023-04-25T02:03:11;94682.00;;;10.41;83.58
77288;BME280;66345;42.694;23.346;2023-04-25T02:05:37;94676.69;;;10.41;84.17
77288;BME280;66345;42.694;23.346;2023-04-25T02:08:05;94689.31;;;10.59;84.22
77288;BME280;66345;42.694;23.346;2023-04-25T02:10:30;94675.28;;;10.45;83.95
77288;BME280;66345;42.694;23.346;2023-04-25T02:12:57;94677.47;;;10.62;84.17
77288;BME280;66345;42.694;23.346;2023-04-25T02:15:22;94673.41;;;10.66;84.21
77288;BME280;66345;42.694;23.346;2023-04-25T02:17:48;94662.72;;;10.72;83.81
77288;BME280;66345;42.694;23.346;2023-04-25T02:20:14;94669.53;;;10.48;84.52
77288;BME280;66345;42.694;23.346;2023-04-25T02:22:41;94663.22;;;10.49;84.40
77288;BME280;66345;42.694;23.346;2023-04-25T02:25:08;94651.03;;;10.22;84.39
77288;BME280;66345;42.694;23.346;2023-04-25T02:27:34;94659.59;;;10.17;85.07
77288;BME280;66345;42.694;23.346;2023-04-25T02:30:00;94651.44;;;10.25;84.96
77288;BME280;66345;42.694;23.346;2023-04-25T02:32:26;94647.75;;;10.40;84.71
77288;BME280;66345;42.694;23.346;2023-04-25T02:34:52;94652.66;;;10.36;84.44
77288;BME280;66345;42.694;23.346;2023-04-25T02:37:17;94638.19;;;10.12;84.07
77288;BME280;66345;42.694;23.346;2023-04-25T02:39:43;94641.88;;;9.98;84.70
77288;BME280;66345;42.694;23.346;2023-04-25T02:42:08;94629.84;;;9.95;84.85
77288;BME280;66345;42.694;23.346;2023-04-25T02:44:33;94634.53;;;10.13;85.58
77288;BME280;66345;42.694;23.346;2023-04-25T02:46:59;94636.38;;;9.93;84.98
77288;BME280;66345;42.694;23.346;2023-04-25T02:49:24;94636.81;;;9.70;85.09
77288;BME280;66345;42.694;23.346;2023-04-25T02:51:50;94634.56;;;9.60;85.66
77288;BME280;66345;42.694;23.346;2023-04-25T02:54:15;94626.59;;;9.47;86.57
77288;BME280;66345;42.694;23.346;2023-04-25T02:56:41;94633.72;;;9.66;86.58
77288;BME280;66345;42.694;23.346;2023-04-25T02:59:06;94627.22;;;9.76;85.90
77288;BME280;66345;42.694;23.346;2023-04-25T03:01:31;94628.03;;;9.76;85.49
77288;BME280;66345;42.694;23.346;2023-04-25T03:03:57;94622.09;;;9.94;85.70
77288;BME280;66345;42.694;23.346;2023-04-25T03:06:22;94629.63;;;9.97;85.28
77288;BME280;66345;42.694;23.346;2023-04-25T03:08:48;94622.09;;;10.00;84.76
77288;BME280;66345;42.694;23.346;2023-04-25T03:11:13;94625.19;;;9.97;83.75
77288;BME280;66345;42.694;23.346;2023-04-25T03:13:38;94621.50;;;9.92;84.41
77288;BME280;66345;42.694;23.346;2023-04-25T03:16:04;94620.28;;;9.81;85.27
77288;BME280;66345;42.694;23.346;2023-04-25T03:18:30;94622.53;;;9.91;85.44
77288;BME280;66345;42.694;23.346;2023-04-25T03:20:55;94632.31;;;9.84;84.88
77288;BME280;66345;42.694;23.346;2023-04-25T03:23:21;94627.22;;;9.76;85.50
77288;BME280;66345;42.694;23.346;2023-04-25T03:25:46;94620.69;;;9.58;85.67
77288;BME280;66345;42.694;23.346;2023-04-25T03:28:12;94622.34;;;9.53;86.48
77288;BME280;66345;42.694;23.346;2023-04-25T03:30:37;94620.50;;;9.80;85.64
77288;BME280;66345;42.694;23.346;2023-04-25T03:33:03;94613.34;;;10.00;84.76
77288;BME280;66345;42.694;23.346;2023-04-25T03:35:28;94619.63;;;10.12;84.36
77288;BME280;66345;42.694;23.346;2023-04-25T03:37:54;94614.38;;;9.92;85.72
77288;BME280;66345;42.694;23.346;2023-04-25T03:40:19;94617.00;;;9.99;85.95
77288;BME280;66345;42.694;23.346;2023-04-25T03:42:45;94614.94;;;10.14;84.82
77288;BME280;66345;42.694;23.346;2023-04-25T03:45:10;94625.53;;;10.27;84.09
77288;BME280;66345;42.694;23.346;2023-04-25T03:47:36;94621.28;;;10.13;84.47
77288;BME280;66345;42.694;23.346;2023-04-25T03:50:03;94625.13;;;10.17;84.77
77288;BME280;66345;42.694;23.346;2023-04-25T03:52:28;94616.94;;;10.45;84.12
77288;BME280;66345;42.694;23.346;2023-04-25T03:54:54;94616.47;;;10.55;83.53
77288;BME280;66345;42.694;23.346;2023-04-25T03:57:19;94590.69;;;10.75;82.22
77288;BME280;66345;42.694;23.346;2023-04-25T03:59:45;94607.59;;;10.81;81.23
77288;BME280;66345;42.694;23.346;2023-04-25T04:02:10;94618.88;;;10.70;81.18
77288;BME280;66345;42.694;23.346;2023-04-25T04:04:36;94616.28;;;10.95;81.09
77288;BME280;66345;42.694;23.346;2023-04-25T04:07:01;94625.22;;;11.07;80.90
77288;BME280;66345;42.694;23.346;2023-04-25T04:09:27;94618.22;;;11.19;78.95
77288;BME280;66345;42.694;23.346;2023-04-25T04:11:53;94631.84;;;11.29;78.89
77288;BME280;66345;42.694;23.346;2023-04-25T04:14:18;94630.50;;;11.14;80.04
77288;BME280;66345;42.694;23.346;2023-04-25T04:16:44;94630.16;;;11.35;79.22
77288;BME280;66345;42.694;23.346;2023-04-25T04:19:10;94628.44;;;11.47;77.81
77288;BME280;66345;42.694;23.346;2023-04-25T04:21:36;94628.88;;;11.44;77.88
77288;BME280;66345;42.694;23.346;2023-04-25T04:24:01;94631.38;;;11.01;80.89
77288;BME280;66345;42.694;23.346;2023-04-25T04:26:27;94625.94;;;10.89;79.99
77288;BME280;66345;42.694;23.346;2023-04-25T04:28:52;94627.81;;;10.82;80.74
77288;BME280;66345;42.694;23.346;2023-04-25T04:31:20;94624.66;;;10.98;80.79
77288;BME280;66345;42.694;23.346;2023-04-25T04:33:46;94626.00;;;11.14;79.57
77288;BME280;66345;42.694;23.346;2023-04-25T04:36:12;94618.56;;;10.91;79.97
77288;BME280;66345;42.694;23.346;2023-04-25T04:38:39;94616.66;;;11.05;80.16
77288;BME280;66345;42.694;23.346;2023-04-25T04:41:05;94619.91;;;11.38;79.98
77288;BME280;66345;42.694;23.346;2023-04-25T04:43:31;94615.56;;;11.19;80.12
77288;BME280;66345;42.694;23.346;2023-04-25T04:46:00;94608.19;;;11.21;80.12
77288;BME280;66345;42.694;23.346;2023-04-25T04:48:25;94621.09;;;11.74;78.58
77288;BME280;66345;42.694;23.346;2023-04-25T04:50:51;94629.91;;;11.68;77.86
77288;BME280;66345;42.694;23.346;2023-04-25T04:53:16;94631.81;;;11.61;79.85
77288;BME280;66345;42.694;23.346;2023-04-25T04:55:42;94639.44;;;11.82;79.52
77288;BME280;66345;42.694;23.346;2023-04-25T04:58:08;94634.91;;;11.89;78.64
77288;BME280;66345;42.694;23.346;2023-04-25T05:00:34;94633.44;;;11.62;78.49
77288;BME280;66345;42.694;23.346;2023-04-25T05:02:59;94630.75;;;11.37;80.03
77288;BME280;66345;42.694;23.346;2023-04-25T05:05:25;94643.38;;;11.73;79.25
77288;BME280;66345;42.694;23.346;2023-04-25T05:07:51;94633.16;;;12.02;78.16
77288;BME280;66345;42.694;23.346;2023-04-25T05:10:19;94658.16;;;11.62;79.56
77288;BME280;66345;42.694;23.346;2023-04-25T05:12:45;94672.63;;;11.73;80.21
77288;BME280;66345;42.694;23.346;2023-04-25T05:15:11;94644.19;;;11.80;80.18
77288;BME280;66345;42.694;23.346;2023-04-25T05:17:37;94654.25;;;11.72;79.01
77288;BME280;66345;42.694;23.346;2023-04-25T05:20:04;94655.91;;;11.66;80.19
77288;BME280;66345;42.694;23.346;2023-04-25T05:22:31;94651.13;;;11.50;80.92
77288;BME280;66345;42.694;23.346;2023-04-25T05:24:56;94654.06;;;11.66;81.40
77288;BME280;66345;42.694;23.346;2023-04-25T05:27:21;94654.44;;;11.38;78.98
77288;BME280;66345;42.694;23.346;2023-04-25T05:29:47;94665.81;;;11.52;79.76
77288;BME280;66345;42.694;23.346;2023-04-25T05:32:12;94658.16;;;11.62;78.80
77288;BME280;66345;42.694;23.346;2023-04-25T05:34:38;94653.41;;;11.71;78.22
77288;BME280;66345;42.694;23.346;2023-04-25T05:37:03;94661.75;;;11.81;78.21
77288;BME280;66345;42.694;23.346;2023-04-25T05:39:29;94657.41;;;11.87;77.17
77288;BME280;66345;42.694;23.346;2023-04-25T05:41:55;94649.94;;;12.02;79.23
77288;BME280;66345;42.694;23.346;2023-04-25T05:44:20;94643.19;;;12.25;76.59
77288;BME280;66345;42.694;23.346;2023-04-25T05:46:46;94635.53;;;12.10;76.31
77288;BME280;66345;42.694;23.346;2023-04-25T05:49:11;94650.41;;;11.92;77.74
77288;BME280;66345;42.694;23.346;2023-04-25T05:51:37;94646.94;;;11.92;77.86
77288;BME280;66345;42.694;23.346;2023-04-25T05:54:03;94655.50;;;12.19;76.07
77288;BME280;66345;42.694;23.346;2023-04-25T05:56:28;94645.66;;;12.19;76.17
77288;BME280;66345;42.694;23.346;2023-04-25T05:58:53;94654.94;;;12.35;74.56
77288;BME280;66345;42.694;23.346;2023-04-25T06:01:19;94640.81;;;12.90;71.30
77288;BME280;66345;42.694;23.346;2023-04-25T06:03:45;94640.41;;;13.04;71.00
77288;BME280;66345;42.694;23.346;2023-04-25T06:06:11;94649.72;;;13.14;70.77
77288;BME280;66345;42.694;23.346;2023-04-25T06:08:37;94639.97;;;13.26;69.21
77288;BME280;66345;42.694;23.346;2023-04-25T06:11:03;94642.53;;;13.14;69.94
77288;BME280;66345;42.694;23.346;2023-04-25T06:13:29;94651.56;;;13.73;68.61
77288;BME280;66345;42.694;23.346;2023-04-25T06:15:55;94653.34;;;13.91;68.64
77288;BME280;66345;42.694;23.346;2023-04-25T06:18:20;94644.31;;;13.39;69.85
77288;BME280;66345;42.694;23.346;2023-04-25T06:20:46;94641.94;;;13.12;69.59
77288;BME280;66345;42.694;23.346;2023-04-25T06:23:11;94642.19;;;13.71;69.54
77288;BME280;66345;42.694;23.346;2023-04-25T06:25:36;94655.22;;;14.02;67.58
77288;BME280;66345;42.694;23.346;2023-04-25T06:28:02;94664.88;;;14.15;68.79
77288;BME280;66345;42.694;23.346;2023-04-25T06:30:27;94663.66;;;13.87;68.03
77288;BME280;66345;42.694;23.346;2023-04-25T06:32:53;94665.53;;;13.45;69.60
77288;BME280;66345;42.694;23.346;2023-04-25T06:35:19;94664.38;;;14.18;68.37
77288;BME280;66345;42.694;23.346;2023-04-25T06:37:44;94662.66;;;14.35;68.00
77288;BME280;66345;42.694;23.346;2023-04-25T06:40:10;94655.00;;;14.74;65.98
77288;BME280;66345;42.694;23.346;2023-04-25T06:42:36;94640.50;;;16.51;59.12
77288;BME280;66345;42.694;23.346;2023-04-25T06:45:01;94645.66;;;17.62;54.12
77288;BME280;66345;42.694;23.346;2023-04-25T06:47:27;94655.59;;;16.74;57.75
77288;BME280;66345;42.694;23.346;2023-04-25T06:49:53;94665.38;;;16.30;58.10
77288;BME280;66345;42.694;23.346;2023-04-25T06:52:18;94660.31;;;15.66;59.94
77288;BME280;66345;42.694;23.346;2023-04-25T06:54:44;94659.81;;;15.69;61.85
77288;BME280;66345;42.694;23.346;2023-04-25T06:57:10;94665.09;;;15.52;59.81
77288;BME280;66345;42.694;23.346;2023-04-25T06:59:35;94662.16;;;15.37;60.37
77288;BME280;66345;42.694;23.346;2023-04-25T07:02:00;94660.41;;;15.60;59.80
77288;BME280;66345;42.694;23.346;2023-04-25T07:04:26;94652.03;;;15.68;62.09
77288;BME280;66345;42.694;23.346;2023-04-25T07:06:51;94659.97;;;15.63;60.36
77288;BME280;66345;42.694;23.346;2023-04-25T07:09:17;94657.28;;;15.63;61.71
77288;BME280;66345;42.694;23.346;2023-04-25T07:11:42;94662.72;;;15.68;60.62
77288;BME280;66345;42.694;23.346;2023-04-25T07:14:07;94661.44;;;15.70;61.51
77288;BME280;66345;42.694;23.346;2023-04-25T07:16:33;94660.66;;;15.30;61.47
77288;BME280;66345;42.694;23.346;2023-04-25T07:18:58;94666.13;;;15.23;62.25
77288;BME280;66345;42.694;23.346;2023-04-25T07:21:25;94660.66;;;14.89;63.75
77288;BME280;66345;42.694;23.346;2023-04-25T07:23:50;94666.59;;;14.33;65.60
77288;BME280;66345;42.694;23.346;2023-04-25T07:26:16;94658.31;;;14.93;63.63
77288;BME280;66345;42.694;23.346;2023-04-25T07:28:42;94661.38;;;14.73;63.79
77288;BME280;66345;42.694;23.346;2023-04-25T07:31:08;94657.22;;;15.17;61.88
77288;BME280;66345;42.694;23.346;2023-04-25T07:33:33;94654.78;;;15.16;61.96
77288;BME280;66345;42.694;23.346;2023-04-25T07:36:00;94656.94;;;15.31;62.10
77288;BME280;66345;42.694;23.346;2023-04-25T07:38:25;94653.59;;;15.52;60.91
77288;BME280;66345;42.694;23.346;2023-04-25T07:40:52;94649.75;;;14.91;62.84
77288;BME280;66345;42.694;23.346;2023-04-25T07:43:17;94646.88;;;15.49;60.83
77288;BME280;66345;42.694;23.346;2023-04-25T07:45:43;94641.78;;;16.10;59.41
77288;BME280;66345;42.694;23.346;2023-04-25T07:48:09;94637.66;;;17.94;53.40
77288;BME280;66345;42.694;23.346;2023-04-25T07:50:35;94636.41;;;17.26;54.54
77288;BME280;66345;42.694;23.346;2023-04-25T07:53:00;94641.38;;;16.18;58.64
77288;BME280;66345;42.694;23.346;2023-04-25T07:55:26;94637.00;;;15.21;61.13
77288;BME280;66345;42.694;23.346;2023-04-25T07:57:52;94638.25;;;15.47;60.61
77288;BME280;66345;42.694;23.346;2023-04-25T08:00:17;94646.38;;;15.52;59.18
77288;BME280;66345;42.694;23.346;2023-04-25T08:02:43;94628.22;;;16.33;58.61
77288;BME280;66345;42.694;23.346;2023-04-25T08:05:09;94635.34;;;15.77;58.29
77288;BME280;66345;42.694;23.346;2023-04-25T08:07:37;94636.50;;;15.81;58.50
77288;BME280;66345;42.694;23.346;2023-04-25T08:10:05;94632.56;;;16.40;56.42
77288;BME280;66345;42.694;23.346;2023-04-25T08:12:31;94626.69;;;16.98;55.15
77288;BME280;66345;42.694;23.346;2023-04-25T08:14:56;94625.69;;;19.64;47.16
77288;BME280;66345;42.694;23.346;2023-04-25T08:17:21;94617.97;;;21.40;43.02
77288;BME280;66345;42.694;23.346;2023-04-25T08:19:47;94613.94;;;21.27;43.40
77288;BME280;66345;42.694;23.346;2023-04-25T08:22:12;94608.34;;;21.13;43.73
77288;BME280;66345;42.694;23.346;2023-04-25T08:24:38;94607.44;;;20.12;44.17
77288;BME280;66345;42.694;23.346;2023-04-25T08:27:03;94603.63;;;22.86;40.16
77288;BME280;66345;42.694;23.346;2023-04-25T08:29:29;94601.03;;;24.04;37.34
77288;BME280;66345;42.694;23.346;2023-04-25T08:31:54;94597.09;;;23.35;37.63
77288;BME280;66345;42.694;23.346;2023-04-25T08:34:20;94605.34;;;22.48;38.14
77288;BME280;66345;42.694;23.346;2023-04-25T08:36:45;94601.19;;;21.48;41.17
77288;BME280;66345;42.694;23.346;2023-04-25T08:39:11;94614.06;;;20.91;45.06
77288;BME280;66345;42.694;23.346;2023-04-25T08:41:37;94623.91;;;19.07;53.69
77288;BME280;66345;42.694;23.346;2023-04-25T08:44:03;94645.56;;;17.30;57.90
77288;BME280;66345;42.694;23.346;2023-04-25T08:46:30;94647.59;;;16.41;62.00
77288;BME280;66345;42.694;23.346;2023-04-25T08:49:01;94645.63;;;15.69;64.42
77288;BME280;66345;42.694;23.346;2023-04-25T08:51:32;94646.03;;;15.49;66.31
77288;BME280;66345;42.694;23.346;2023-04-25T08:54:08;94640.09;;;15.30;66.74
77288;BME280;66345;42.694;23.346;2023-04-25T08:56:34;94637.56;;;15.80;67.43
77288;BME280;66345;42.694;23.346;2023-04-25T08:59:01;94622.16;;;17.74;61.17
77288;BME280;66345;42.694;23.346;2023-04-25T09:01:27;94615.00;;;20.56;51.15
77288;BME280;66345;42.694;23.346;2023-04-25T09:03:53;94608.97;;;20.85;49.33
77288;BME280;66345;42.694;23.346;2023-04-25T09:06:19;94616.78;;;18.76;53.16
77288;BME280;66345;42.694;23.346;2023-04-25T09:08:45;94614.50;;;16.85;60.79
77288;BME280;66345;42.694;23.346;2023-04-25T09:11:12;94613.78;;;16.01;59.56
77288;BME280;66345;42.694;23.346;2023-04-25T09:13:38;94606.34;;;15.12;62.54
77288;BME280;66345;42.694;23.346;2023-04-25T09:16:03;94609.84;;;15.58;58.78
77288;BME280;66345;42.694;23.346;2023-04-25T09:18:30;94600.50;;;16.45;57.22
77288;BME280;66345;42.694;23.346;2023-04-25T09:21:16;94577.81;;;19.77;47.99
77288;BME280;66345;42.694;23.346;2023-04-25T09:23:47;94579.38;;;20.39;46.68
77288;BME280;66345;42.694;23.346;2023-04-25T09:26:18;94581.19;;;20.94;45.20
77288;BME280;66345;42.694;23.346;2023-04-25T09:28:44;94580.19;;;21.84;40.25
77288;BME280;66345;42.694;23.346;2023-04-25T09:31:11;94582.50;;;21.62;40.73
77288;BME280;66345;42.694;23.346;2023-04-25T09:33:37;94587.50;;;19.93;44.29
77288;BME280;66345;42.694;23.346;2023-04-25T09:36:08;94596.13;;;17.75;51.09
77288;BME280;66345;42.694;23.346;2023-04-25T09:38:45;94592.03;;;16.70;54.78
77288;BME280;66345;42.694;23.346;2023-04-25T09:41:11;94588.06;;;16.72;55.80
77288;BME280;66345;42.694;23.346;2023-04-25T09:43:37;94572.59;;;19.34;47.98
77288;BME280;66345;42.694;23.346;2023-04-25T09:46:08;94565.41;;;20.42;45.27
77288;BME280;66345;42.694;23.346;2023-04-25T09:48:33;94551.50;;;23.42;39.05
77288;BME280;66345;42.694;23.346;2023-04-25T09:51:12;94564.78;;;24.79;35.46
77288;BME280;66345;42.694;23.346;2023-04-25T09:53:44;94577.41;;;25.52;34.67
77288;BME280;66345;42.694;23.346;2023-04-25T09:56:16;94575.41;;;24.75;35.80
77288;BME280;66345;42.694;23.346;2023-04-25T09:58:41;94572.00;;;28.27;29.58
77288;BME280;66345;42.694;23.346;2023-04-25T10:01:08;94575.22;;;29.10;28.63
77288;BME280;66345;42.694;23.346;2023-04-25T10:03:36;94574.00;;;28.90;27.49
77288;BME280;66345;42.694;23.346;2023-04-25T10:06:08;94579.88;;;24.39;34.50
77288;BME280;66345;42.694;23.346;2023-04-25T10:08:37;94586.88;;;21.92;41.19
77288;BME280;66345;42.694;23.346;2023-04-25T10:11:04;94580.69;;;22.78;39.95
77288;BME280;66345;42.694;23.346;2023-04-25T10:13:31;94583.59;;;21.55;42.64
77288;BME280;66345;42.694;23.346;2023-04-25T10:15:58;94580.50;;;20.48;44.67
77288;BME280;66345;42.694;23.346;2023-04-25T10:18:25;94582.13;;;19.78;46.07
77288;BME280;66345;42.694;23.346;2023-04-25T10:20:57;94591.19;;;19.46;46.95
77288;BME280;66345;42.694;23.346;2023-04-25T10:23:23;94605.72;;;17.93;55.68
77288;BME280;66345;42.694;23.346;2023-04-25T10:25:52;94585.06;;;16.90;62.02
77288;BME280;66345;42.694;23.346;2023-04-25T10:28:19;94581.34;;;15.97;53.01
77288;BME280;66345;42.694;23.346;2023-04-25T10:30:57;94570.44;;;17.25;53.25
77288;BME280;66345;42.694;23.346;2023-04-25T10:33:36;94560.56;;;19.62;50.50
77288;BME280;66345;42.694;23.346;2023-04-25T10:36:18;94574.13;;;21.58;47.24
77288;BME280;66345;42.694;23.346;2023-04-25T10:38:45;94583.38;;;21.47;45.58
77288;BME280;66345;42.694;23.346;2023-04-25T10:41:12;94609.09;;;19.00;49.98
77288;BME280;66345;42.694;23.346;2023-04-25T10:46:23;94594.44;;;16.49;52.86
77288;BME280;66345;42.694;23.346;2023-04-25T10:51:18;94584.00;;;16.91;54.49
77288;BME280;66345;42.694;23.346;2023-04-25T10:53:45;94568.28;;;16.56;52.95
77288;BME280;66345;42.694;23.346;2023-04-25T10:56:18;94578.41;;;16.54;54.27
77288;BME280;66345;42.694;23.346;2023-04-25T10:58:45;94575.28;;;17.01;53.89
77288;BME280;66345;42.694;23.346;2023-04-25T11:01:13;94571.28;;;17.04;54.60
77288;BME280;66345;42.694;23.346;2023-04-25T11:03:43;94574.06;;;17.14;54.28
77288;BME280;66345;42.694;23.346;2023-04-25T11:06:29;94565.97;;;17.36;52.34
77288;BME280;66345;42.694;23.346;2023-04-25T11:09:00;94563.88;;;18.02;52.57
77288;BME280;66345;42.694;23.346;2023-04-25T11:11:28;94556.69;;;18.08;51.52
77288;BME280;66345;42.694;23.346;2023-04-25T11:13:54;94548.91;;;18.11;50.96
77288;BME280;66345;42.694;23.346;2023-04-25T11:16:24;94550.47;;;18.02;51.24
77288;BME280;66345;42.694;23.346;2023-04-25T11:18:50;94548.72;;;17.54;50.74
77288;BME280;66345;42.694;23.346;2023-04-25T11:21:16;94546.53;;;17.51;51.17
77288;BME280;66345;42.694;23.346;2023-04-25T11:23:45;94539.13;;;17.31;48.30
77288;BME280;66345;42.694;23.346;2023-04-25T11:26:12;94558.47;;;17.38;48.58
77288;BME280;66345;42.694;23.346;2023-04-25T11:28:38;94555.44;;;17.02;47.76
77288;BME280;66345;42.694;23.346;2023-04-25T11:31:04;94553.31;;;17.04;48.67
77288;BME280;66345;42.694;23.346;2023-04-25T11:33:29;94547.56;;;17.17;48.51
77288;BME280;66345;42.694;23.346;2023-04-25T11:35:55;94553.84;;;17.28;50.60
77288;BME280;66345;42.694;23.346;2023-04-25T11:38:22;94549.16;;;16.91;50.29
77288;BME280;66345;42.694;23.346;2023-04-25T11:40:54;94559.47;;;16.61;51.31
77288;BME280;66345;42.694;23.346;2023-04-25T11:43:21;94571.25;;;16.60;50.87
77288;BME280;66345;42.694;23.346;2023-04-25T11:45:50;94564.34;;;16.03;53.14
77288;BME280;66345;42.694;23.346;2023-04-25T11:48:16;94571.75;;;15.51;55.15
77288;BME280;66345;42.694;23.346;2023-04-25T11:50:42;94581.81;;;15.15;56.74
77288;BME280;66345;42.694;23.346;2023-04-25T11:53:08;94561.31;;;15.04;55.28
77288;BME280;66345;42.694;23.346;2023-04-25T11:55:33;94551.72;;;14.91;58.20
77288;BME280;66345;42.694;23.346;2023-04-25T11:58:00;94547.66;;;14.89;57.69
77288;BME280;66345;42.694;23.346;2023-04-25T12:00:26;94559.00;;;15.24;57.51
77288;BME280;66345;42.694;23.346;2023-04-25T12:02:53;94546.91;;;15.67;56.16
77288;BME280;66345;42.694;23.346;2023-04-25T12:05:20;94541.53;;;16.18;55.68
77288;BME280;66345;42.694;23.346;2023-04-25T12:07:47;94541.53;;;16.40;55.18
77288;BME280;66345;42.694;23.346;2023-04-25T12:10:14;94526.91;;;16.69;52.79
77288;BME280;66345;42.694;23.346;2023-04-25T12:12:46;94532.34;;;16.74;50.23
77288;BME280;66345;42.694;23.346;2023-04-25T12:15:13;94535.09;;;16.79;51.59
77288;BME280;66345;42.694;23.346;2023-04-25T12:17:49;94540.69;;;17.27;50.28
77288;BME280;66345;42.694;23.346;2023-04-25T12:20:16;94542.28;;;17.55;51.34
77288;BME280;66345;42.694;23.346;2023-04-25T12:22:44;94529.09;;;17.80;49.25
77288;BME280;66345;42.694;23.346;2023-04-25T12:25:13;94527.81;;;17.88;46.05
77288;BME280;66345;42.694;23.346;2023-04-25T12:27:39;94543.84;;;17.51;47.20
77288;BME280;66345;42.694;23.346;2023-04-25T12:30:08;94540.06;;;17.46;48.19
77288;BME280;66345;42.694;23.346;2023-04-25T12:32:33;94548.22;;;17.89;48.63
77288;BME280;66345;42.694;23.346;2023-04-25T12:34:59;94585.63;;;17.41;50.88
77288;BME280;66345;42.694;23.346;2023-04-25T12:37:26;94606.09;;;15.88;58.92
77288;BME280;66345;42.694;23.346;2023-04-25T12:39:53;94615.31;;;14.19;67.88
77288;BME280;66345;42.694;23.346;2023-04-25T12:42:18;94629.03;;;13.46;70.98
77288;BME280;66345;42.694;23.346;2023-04-25T12:44:44;94620.84;;;13.29;73.40
77288;BME280;66345;42.694;23.346;2023-04-25T12:47:10;94621.47;;;13.43;73.99
77288;BME280;66345;42.694;23.346;2023-04-25T12:49:35;94620.00;;;13.47;71.81
77288;BME280;66345;42.694;23.346;2023-04-25T12:52:02;94625.22;;;13.53;69.67